• Join FlightAware (Why Join?)
  • Login
  • US Flag 
11:55PM EDT


 

Airport Tracker/Info


-or-


 

Live Flight TrackerFlight Track Log ✈ SGB2520 ✈ 28-Apr-2012 ✈ KALB - KACY

Flight Track Log - Related Links

Times and Time Zones

All times are in EDT time to prevent confusion due to time zone crossing. See the SGB2520 flight status page for this flight to view local times or setup timezone preferences in your user account.

Time Position Orientation Groundspeed Altitude Reporting Facility
EDT Latitude Longitude Course Direction KTS MPH feet Rate Location/Type
09:17PM 42.7653 -73.8061 357° North 168 193 1,300  Level Boston Center
09:18PM 42.8153 -73.8100 275° West 219 252 3,900 3,480 Climbing Boston Center
09:19PM 42.8206 -73.8894 257° West 264 304 7,600 2,880 Climbing Boston Center
09:20PM 42.8047 -73.9825 254° West 287 330 9,700 1,920 Climbing Boston Center
09:21PM 42.7847 -74.0753 227° Southwest 272 313 11,500 2,400 Climbing Boston Center
09:22PM 42.7314 -74.1531 227° Southwest 288 331 14,600 2,820 Climbing Boston Center
09:23PM 42.6611 -74.2556 227° Southwest 330 380 17,200 2,160 Climbing Boston Center
09:24PM 42.5947 -74.3522 227° Southwest 372 428 19,000 900 Climbing Boston Center
09:25PM 42.5136 -74.4708 224° Southwest 388 447 19,000  Level Boston Center
09:26PM 42.4431 -74.5642 215° Southwest 397 457 19,000  Level Boston Center
09:27PM 42.3433 -74.6592 217° Southwest 404 465 19,000  Level Boston Center
09:28PM 42.2517 -74.7514 214° Southwest 413 475 19,000  Level Boston Center
09:29PM 42.1189 -74.8725 218° Southwest 399 459 19,000  Level New York Center
09:30PM 42.0325 -74.9647 215° Southwest 394 453 19,000  Level New York Center
09:31PM 41.9464 -75.0458 216° Southwest 388 447 19,000  Level New York Center
09:32PM 41.8514 -75.1369 215° Southwest 388 447 19,000  Level New York Center
09:33PM 41.7631 -75.2203 216° Southwest 393 452 19,000  Level New York Center
09:34PM 41.6744 -75.3058 216° Southwest 393 452 19,000 -360 Level New York Center
09:35PM 41.5986 -75.3783 217° Southwest 390 449 18,300 -780 Descending New York Center
09:36PM 41.5206 -75.4561 215° Southwest 361 415 17,500 -900 Descending New York Center
09:37PM 41.4342 -75.5358 216° Southwest 351 404 16,500 -780 Descending New York Center
09:38PM 41.3561 -75.6106 215° Southwest 351 404 16,000 -300 Descending New York Center
09:39PM 41.2825 -75.6797 184° South 351 404 16,000  Level New York Center
09:40PM 41.1717 -75.6911 178° South 343 395 16,000  Level New York Center
09:41PM 41.0739 -75.6867 177° South 370 426 16,000  Level New York Center
09:42PM 40.9639 -75.6789 176° South 392 451 16,000  Level New York Center
09:43PM 40.8581 -75.6683 176° South 392 451 16,000  Level New York Center
09:44PM 40.7397 -75.6572 176° South 392 451 16,000  Level New York Center
09:45PM 40.6317 -75.6467 176° South 392 451 16,000  Level New York Center
09:46PM 40.5300 -75.6369 176° South 403 464 16,000  Level New York Center
09:47PM 40.4158 -75.6261 176° South 411 473 16,000  Level New York Center
09:48PM 40.2872 -75.6142 176° South 423 487 16,000 -240 Level New York Center
09:53PM 39.7803 -75.5672 176° South 430 495 14,900 -240 Descending Washington Center
09:54PM 39.6594 -75.5564 176° South 435 501 15,000  Climbing Washington Center
09:55PM 39.5406 -75.5458 175° South 435 501 15,000 -120 Level Washington Center
09:56PM 39.4281 -75.5325 135° Southeast 443 510 14,800 -480 Descending Washington Center
09:57PM 39.3406 -75.4197 116° Southeast 420 483 14,100 -960 Descending Washington Center
09:58PM 39.2839 -75.2725 118° Southeast 420 483 12,900 -1,320 Descending Washington Center
09:59PM 39.2250 -75.1281 116° Southeast 432 497 11,500 -1,320 Descending Washington Center
10:00PM 39.1744 -74.9944 118° Southeast 432 497 10,400 -1,320 Descending Washington Center
10:01PM 39.1278 -74.8825 87° East 393 452 8,900 -1,440 Descending Washington Center
10:02PM 39.1314 -74.7781 29° Northeast 331 381 7,600 -1,560 Descending Washington Center
10:03PM 39.2061 -74.7236 48° Northeast 247 284 5,800 -1,440 Descending Washington Center
10:04PM 39.2617 -74.6428 47° Northeast 271 312 4,700 -720 Descending Washington Center
10:05PM 39.3050 -74.5831 50° Northeast 257 296 4,400 -780 Descending Washington Center
10:06PM 39.3419 -74.5261 43° Northeast 225 259 3,200 -1,080 Descending Washington Center
10:07PM 39.3750 -74.4856 43° Northeast 190 219 2,300 -900 Descending Washington Center